sensor_id;sensor_type;location;lat;lon;timestamp;P1;durP1;ratioP1;P2;durP2;ratioP2
23302;SDS011;11820;48.738;9.092;2023-08-31T00:01:47;3.33;;;1.70;;
23302;SDS011;11820;48.738;9.092;2023-08-31T00:04:13;2.87;;;1.90;;
23302;SDS011;11820;48.738;9.092;2023-08-31T00:06:40;1.50;;;1.40;;
23302;SDS011;11820;48.738;9.092;2023-08-31T00:09:06;3.00;;;1.70;;
23302;SDS011;11820;48.738;9.092;2023-08-31T00:11:34;2.87;;;1.67;;
23302;SDS011;11820;48.738;9.092;2023-08-31T00:14:02;2.03;;;1.53;;
23302;SDS011;11820;48.738;9.092;2023-08-31T00:16:28;2.63;;;2.27;;
23302;SDS011;11820;48.738;9.092;2023-08-31T00:18:55;2.77;;;1.93;;
23302;SDS011;11820;48.738;9.092;2023-08-31T00:21:21;1.97;;;1.70;;
23302;SDS011;11820;48.738;9.092;2023-08-31T00:23:47;3.80;;;1.83;;
23302;SDS011;11820;48.738;9.092;2023-08-31T00:26:12;4.50;;;2.50;;
23302;SDS011;11820;48.738;9.092;2023-08-31T00:28:38;3.20;;;2.03;;
23302;SDS011;11820;48.738;9.092;2023-08-31T00:31:03;3.43;;;2.00;;
23302;SDS011;11820;48.738;9.092;2023-08-31T00:33:29;2.23;;;1.70;;
23302;SDS011;11820;48.738;9.092;2023-08-31T00:35:55;2.53;;;2.03;;
23302;SDS011;11820;48.738;9.092;2023-08-31T00:38:21;3.97;;;2.47;;
23302;SDS011;11820;48.738;9.092;2023-08-31T00:40:46;6.17;;;2.87;;
23302;SDS011;11820;48.738;9.092;2023-08-31T00:43:15;2.57;;;1.90;;
23302;SDS011;11820;48.738;9.092;2023-08-31T00:45:40;3.07;;;2.07;;
23302;SDS011;11820;48.738;9.092;2023-08-31T00:48:06;2.23;;;1.97;;
23302;SDS011;11820;48.738;9.092;2023-08-31T00:50:32;4.67;;;2.30;;
23302;SDS011;11820;48.738;9.092;2023-08-31T00:52:57;3.67;;;1.73;;
23302;SDS011;11820;48.738;9.092;2023-08-31T00:55:23;3.40;;;2.40;;
23302;SDS011;11820;48.738;9.092;2023-08-31T00:57:49;2.37;;;2.03;;
23302;SDS011;11820;48.738;9.092;2023-08-31T01:00:14;3.63;;;2.00;;
23302;SDS011;11820;48.738;9.092;2023-08-31T01:02:43;2.43;;;2.20;;
23302;SDS011;11820;48.738;9.092;2023-08-31T01:05:39;9.33;;;2.47;;
23302;SDS011;11820;48.738;9.092;2023-08-31T01:08:25;6.47;;;2.50;;
23302;SDS011;11820;48.738;9.092;2023-08-31T01:13:40;3.07;;;2.03;;
23302;SDS011;11820;48.738;9.092;2023-08-31T01:16:09;6.00;;;2.63;;
23302;SDS011;11820;48.738;9.092;2023-08-31T01:18:35;2.03;;;1.90;;
23302;SDS011;11820;48.738;9.092;2023-08-31T01:21:10;4.83;;;2.53;;
23302;SDS011;11820;48.738;9.092;2023-08-31T01:26:18;4.23;;;2.43;;
23302;SDS011;11820;48.738;9.092;2023-08-31T01:28:44;4.53;;;2.73;;
23302;SDS011;11820;48.738;9.092;2023-08-31T01:31:10;7.23;;;2.90;;
23302;SDS011;11820;48.738;9.092;2023-08-31T01:33:36;3.43;;;2.63;;
23302;SDS011;11820;48.738;9.092;2023-08-31T01:36:01;3.60;;;2.20;;
23302;SDS011;11820;48.738;9.092;2023-08-31T01:38:33;2.70;;;2.43;;
23302;SDS011;11820;48.738;9.092;2023-08-31T01:41:05;2.70;;;2.40;;
23302;SDS011;11820;48.738;9.092;2023-08-31T01:43:33;3.63;;;2.57;;
23302;SDS011;11820;48.738;9.092;2023-08-31T01:46:00;5.40;;;2.70;;
23302;SDS011;11820;48.738;9.092;2023-08-31T01:48:25;3.13;;;2.10;;
23302;SDS011;11820;48.738;9.092;2023-08-31T01:50:51;3.00;;;2.37;;
23302;SDS011;11820;48.738;9.092;2023-08-31T01:53:16;4.53;;;2.93;;
23302;SDS011;11820;48.738;9.092;2023-08-31T01:55:42;2.83;;;2.33;;
23302;SDS011;11820;48.738;9.092;2023-08-31T01:58:07;3.30;;;2.30;;
23302;SDS011;11820;48.738;9.092;2023-08-31T02:00:32;3.80;;;2.47;;
23302;SDS011;11820;48.738;9.092;2023-08-31T02:03:03;4.07;;;2.30;;
23302;SDS011;11820;48.738;9.092;2023-08-31T02:05:29;2.60;;;2.17;;
23302;SDS011;11820;48.738;9.092;2023-08-31T02:07:54;3.80;;;2.60;;
23302;SDS011;11820;48.738;9.092;2023-08-31T02:10:19;4.10;;;2.03;;
23302;SDS011;11820;48.738;9.092;2023-08-31T02:12:45;2.97;;;2.27;;
23302;SDS011;11820;48.738;9.092;2023-08-31T02:15:10;5.93;;;2.60;;
23302;SDS011;11820;48.738;9.092;2023-08-31T02:17:35;3.13;;;2.27;;
23302;SDS011;11820;48.738;9.092;2023-08-31T02:20:01;3.97;;;2.33;;
23302;SDS011;11820;48.738;9.092;2023-08-31T02:22:30;3.37;;;2.00;;
23302;SDS011;11820;48.738;9.092;2023-08-31T02:24:56;6.03;;;2.17;;
23302;SDS011;11820;48.738;9.092;2023-08-31T02:27:22;2.53;;;2.27;;
23302;SDS011;11820;48.738;9.092;2023-08-31T02:29:47;4.47;;;2.40;;
23302;SDS011;11820;48.738;9.092;2023-08-31T02:32:12;4.33;;;2.27;;
23302;SDS011;11820;48.738;9.092;2023-08-31T02:34:37;2.63;;;2.10;;
23302;SDS011;11820;48.738;9.092;2023-08-31T02:37:03;3.17;;;2.57;;
23302;SDS011;11820;48.738;9.092;2023-08-31T02:39:28;3.80;;;2.30;;
23302;SDS011;11820;48.738;9.092;2023-08-31T02:41:54;2.80;;;2.43;;
23302;SDS011;11820;48.738;9.092;2023-08-31T02:44:19;3.93;;;2.27;;
23302;SDS011;11820;48.738;9.092;2023-08-31T02:46:45;4.13;;;2.20;;
23302;SDS011;11820;48.738;9.092;2023-08-31T02:49:10;2.63;;;2.20;;
23302;SDS011;11820;48.738;9.092;2023-08-31T02:51:35;2.67;;;2.20;;
23302;SDS011;11820;48.738;9.092;2023-08-31T02:54:01;2.77;;;2.30;;
23302;SDS011;11820;48.738;9.092;2023-08-31T02:56:26;7.80;;;2.30;;
23302;SDS011;11820;48.738;9.092;2023-08-31T02:58:51;5.53;;;2.00;;
23302;SDS011;11820;48.738;9.092;2023-08-31T03:01:16;2.30;;;2.10;;
23302;SDS011;11820;48.738;9.092;2023-08-31T03:03:42;3.10;;;2.13;;
23302;SDS011;11820;48.738;9.092;2023-08-31T03:06:09;3.07;;;2.10;;
23302;SDS011;11820;48.738;9.092;2023-08-31T03:08:35;3.67;;;2.20;;
23302;SDS011;11820;48.738;9.092;2023-08-31T03:11:01;2.77;;;2.33;;
23302;SDS011;11820;48.738;9.092;2023-08-31T03:13:27;3.13;;;2.30;;
23302;SDS011;11820;48.738;9.092;2023-08-31T03:15:53;2.30;;;2.10;;
23302;SDS011;11820;48.738;9.092;2023-08-31T03:18:18;2.50;;;2.10;;
23302;SDS011;11820;48.738;9.092;2023-08-31T03:20:44;4.20;;;2.60;;
23302;SDS011;11820;48.738;9.092;2023-08-31T03:23:09;2.33;;;2.13;;
23302;SDS011;11820;48.738;9.092;2023-08-31T03:25:36;4.00;;;2.60;;
23302;SDS011;11820;48.738;9.092;2023-08-31T03:28:01;3.33;;;2.70;;
23302;SDS011;11820;48.738;9.092;2023-08-31T03:30:27;3.37;;;2.50;;
23302;SDS011;11820;48.738;9.092;2023-08-31T03:32:52;3.53;;;2.60;;
23302;SDS011;11820;48.738;9.092;2023-08-31T03:35:19;3.80;;;2.37;;
23302;SDS011;11820;48.738;9.092;2023-08-31T03:37:47;3.97;;;2.57;;
23302;SDS011;11820;48.738;9.092;2023-08-31T03:40:12;3.10;;;2.80;;
23302;SDS011;11820;48.738;9.092;2023-08-31T03:42:38;3.40;;;2.60;;
23302;SDS011;11820;48.738;9.092;2023-08-31T03:45:04;4.27;;;2.80;;
23302;SDS011;11820;48.738;9.092;2023-08-31T03:47:29;3.57;;;2.97;;
23302;SDS011;11820;48.738;9.092;2023-08-31T03:49:55;4.67;;;3.30;;
23302;SDS011;11820;48.738;9.092;2023-08-31T03:52:20;4.23;;;2.57;;
23302;SDS011;11820;48.738;9.092;2023-08-31T03:54:46;2.90;;;2.50;;
23302;SDS011;11820;48.738;9.092;2023-08-31T03:57:11;2.90;;;2.60;;
23302;SDS011;11820;48.738;9.092;2023-08-31T03:59:36;3.60;;;2.60;;
23302;SDS011;11820;48.738;9.092;2023-08-31T04:02:02;4.20;;;2.67;;
23302;SDS011;11820;48.738;9.092;2023-08-31T04:04:27;4.80;;;3.00;;
23302;SDS011;11820;48.738;9.092;2023-08-31T04:06:52;5.20;;;3.10;;
23302;SDS011;11820;48.738;9.092;2023-08-31T04:09:18;5.23;;;3.17;;
23302;SDS011;11820;48.738;9.092;2023-08-31T04:11:44;7.00;;;3.30;;
23302;SDS011;11820;48.738;9.092;2023-08-31T04:14:09;5.97;;;2.80;;
23302;SDS011;11820;48.738;9.092;2023-08-31T04:16:34;3.83;;;2.70;;
23302;SDS011;11820;48.738;9.092;2023-08-31T04:19:00;3.97;;;2.87;;
23302;SDS011;11820;48.738;9.092;2023-08-31T04:21:25;4.87;;;3.07;;
23302;SDS011;11820;48.738;9.092;2023-08-31T04:23:50;3.93;;;2.93;;
23302;SDS011;11820;48.738;9.092;2023-08-31T04:26:16;5.27;;;3.03;;
23302;SDS011;11820;48.738;9.092;2023-08-31T04:28:42;5.33;;;2.93;;
23302;SDS011;11820;48.738;9.092;2023-08-31T04:31:08;5.73;;;3.17;;
23302;SDS011;11820;48.738;9.092;2023-08-31T04:33:34;5.17;;;3.00;;
23302;SDS011;11820;48.738;9.092;2023-08-31T04:36:00;5.03;;;2.80;;
23302;SDS011;11820;48.738;9.092;2023-08-31T04:38:25;3.67;;;2.87;;
23302;SDS011;11820;48.738;9.092;2023-08-31T04:40:50;3.77;;;2.73;;
23302;SDS011;11820;48.738;9.092;2023-08-31T04:43:16;8.37;;;2.90;;
23302;SDS011;11820;48.738;9.092;2023-08-31T04:45:42;4.43;;;2.60;;
23302;SDS011;11820;48.738;9.092;2023-08-31T04:48:07;5.63;;;2.90;;
23302;SDS011;11820;48.738;9.092;2023-08-31T04:50:32;3.40;;;3.00;;
23302;SDS011;11820;48.738;9.092;2023-08-31T04:52:58;3.13;;;2.60;;
23302;SDS011;11820;48.738;9.092;2023-08-31T04:55:23;4.90;;;3.20;;
23302;SDS011;11820;48.738;9.092;2023-08-31T04:57:50;6.80;;;3.00;;
23302;SDS011;11820;48.738;9.092;2023-08-31T05:00:15;6.07;;;3.07;;
23302;SDS011;11820;48.738;9.092;2023-08-31T05:02:41;6.37;;;3.03;;
23302;SDS011;11820;48.738;9.092;2023-08-31T05:05:06;3.67;;;2.90;;
23302;SDS011;11820;48.738;9.092;2023-08-31T05:07:32;5.90;;;3.07;;
23302;SDS011;11820;48.738;9.092;2023-08-31T05:09:57;4.23;;;2.93;;
23302;SDS011;11820;48.738;9.092;2023-08-31T05:12:22;3.87;;;2.80;;
23302;SDS011;11820;48.738;9.092;2023-08-31T05:14:48;3.33;;;2.70;;
23302;SDS011;11820;48.738;9.092;2023-08-31T05:17:13;6.77;;;2.90;;
23302;SDS011;11820;48.738;9.092;2023-08-31T05:19:38;5.60;;;2.90;;
23302;SDS011;11820;48.738;9.092;2023-08-31T05:22:03;4.33;;;2.93;;
23302;SDS011;11820;48.738;9.092;2023-08-31T05:24:29;5.07;;;3.37;;
23302;SDS011;11820;48.738;9.092;2023-08-31T05:26:54;4.50;;;2.83;;
23302;SDS011;11820;48.738;9.092;2023-08-31T05:29:20;3.50;;;3.03;;
23302;SDS011;11820;48.738;9.092;2023-08-31T05:31:45;6.30;;;3.53;;
23302;SDS011;11820;48.738;9.092;2023-08-31T05:34:10;4.67;;;3.00;;
23302;SDS011;11820;48.738;9.092;2023-08-31T05:36:36;5.23;;;3.40;;
23302;SDS011;11820;48.738;9.092;2023-08-31T05:39:01;9.80;;;3.63;;
23302;SDS011;11820;48.738;9.092;2023-08-31T05:41:27;4.83;;;3.03;;
23302;SDS011;11820;48.738;9.092;2023-08-31T05:43:53;8.03;;;3.37;;
23302;SDS011;11820;48.738;9.092;2023-08-31T05:46:18;4.63;;;3.57;;
23302;SDS011;11820;48.738;9.092;2023-08-31T05:48:44;4.87;;;3.10;;
23302;SDS011;11820;48.738;9.092;2023-08-31T05:51:09;3.83;;;3.17;;
23302;SDS011;11820;48.738;9.092;2023-08-31T05:53:35;6.23;;;3.40;;
23302;SDS011;11820;48.738;9.092;2023-08-31T05:56:00;3.77;;;2.70;;
23302;SDS011;11820;48.738;9.092;2023-08-31T05:58:36;3.57;;;3.27;;
23302;SDS011;11820;48.738;9.092;2023-08-31T06:01:02;5.87;;;3.33;;
23302;SDS011;11820;48.738;9.092;2023-08-31T06:03:28;5.20;;;3.40;;
23302;SDS011;11820;48.738;9.092;2023-08-31T06:05:54;7.20;;;3.50;;
23302;SDS011;11820;48.738;9.092;2023-08-31T06:08:20;5.70;;;3.70;;
23302;SDS011;11820;48.738;9.092;2023-08-31T06:10:46;5.13;;;3.10;;
23302;SDS011;11820;48.738;9.092;2023-08-31T06:13:11;7.77;;;3.80;;
23302;SDS011;11820;48.738;9.092;2023-08-31T06:15:36;6.70;;;3.63;;
23302;SDS011;11820;48.738;9.092;2023-08-31T06:18:02;6.47;;;3.43;;
23302;SDS011;11820;48.738;9.092;2023-08-31T06:20:27;6.70;;;3.90;;
23302;SDS011;11820;48.738;9.092;2023-08-31T06:22:53;6.53;;;3.63;;
23302;SDS011;11820;48.738;9.092;2023-08-31T06:25:18;6.17;;;3.67;;
23302;SDS011;11820;48.738;9.092;2023-08-31T06:27:43;8.13;;;3.60;;
23302;SDS011;11820;48.738;9.092;2023-08-31T06:30:09;5.57;;;3.17;;
23302;SDS011;11820;48.738;9.092;2023-08-31T06:32:40;4.97;;;3.40;;
23302;SDS011;11820;48.738;9.092;2023-08-31T06:35:07;7.37;;;3.67;;
23302;SDS011;11820;48.738;9.092;2023-08-31T06:37:32;4.80;;;3.80;;
23302;SDS011;11820;48.738;9.092;2023-08-31T06:39:57;4.03;;;3.33;;
23302;SDS011;11820;48.738;9.092;2023-08-31T06:42:23;8.27;;;4.07;;
23302;SDS011;11820;48.738;9.092;2023-08-31T06:44:48;8.20;;;3.30;;
23302;SDS011;11820;48.738;9.092;2023-08-31T06:47:13;5.70;;;3.10;;
23302;SDS011;11820;48.738;9.092;2023-08-31T06:49:41;6.10;;;3.77;;
23302;SDS011;11820;48.738;9.092;2023-08-31T06:52:07;7.13;;;3.20;;
23302;SDS011;11820;48.738;9.092;2023-08-31T06:54:33;5.37;;;3.00;;
23302;SDS011;11820;48.738;9.092;2023-08-31T06:56:58;4.83;;;3.10;;
23302;SDS011;11820;48.738;9.092;2023-08-31T06:59:24;6.17;;;3.03;;
23302;SDS011;11820;48.738;9.092;2023-08-31T07:01:49;6.93;;;2.80;;
23302;SDS011;11820;48.738;9.092;2023-08-31T07:04:15;6.47;;;3.77;;
23302;SDS011;11820;48.738;9.092;2023-08-31T07:06:40;8.67;;;3.80;;
23302;SDS011;11820;48.738;9.092;2023-08-31T07:09:05;3.87;;;3.03;;
23302;SDS011;11820;48.738;9.092;2023-08-31T07:11:33;6.70;;;2.97;;
23302;SDS011;11820;48.738;9.092;2023-08-31T07:13:58;4.33;;;2.03;;
23302;SDS011;11820;48.738;9.092;2023-08-31T07:16:24;5.77;;;2.90;;
23302;SDS011;11820;48.738;9.092;2023-08-31T07:18:49;4.10;;;2.07;;
23302;SDS011;11820;48.738;9.092;2023-08-31T07:21:15;3.87;;;2.20;;
23302;SDS011;11820;48.738;9.092;2023-08-31T07:23:40;3.47;;;2.23;;
23302;SDS011;11820;48.738;9.092;2023-08-31T07:26:05;4.93;;;2.30;;
23302;SDS011;11820;48.738;9.092;2023-08-31T07:28:30;4.63;;;2.20;;
23302;SDS011;11820;48.738;9.092;2023-08-31T07:31:03;5.63;;;2.40;;
23302;SDS011;11820;48.738;9.092;2023-08-31T07:33:29;4.63;;;2.10;;
23302;SDS011;11820;48.738;9.092;2023-08-31T07:35:56;3.37;;;2.30;;
23302;SDS011;11820;48.738;9.092;2023-08-31T07:38:23;7.33;;;2.03;;
23302;SDS011;11820;48.738;9.092;2023-08-31T07:40:48;6.00;;;1.83;;
23302;SDS011;11820;48.738;9.092;2023-08-31T07:43:14;4.90;;;2.27;;
23302;SDS011;11820;48.738;9.092;2023-08-31T07:45:39;5.43;;;2.10;;
23302;SDS011;11820;48.738;9.092;2023-08-31T07:48:04;5.83;;;2.27;;
23302;SDS011;11820;48.738;9.092;2023-08-31T07:50:31;4.43;;;1.90;;
23302;SDS011;11820;48.738;9.092;2023-08-31T07:52:56;5.37;;;2.30;;
23302;SDS011;11820;48.738;9.092;2023-08-31T07:55:21;8.13;;;2.20;;
23302;SDS011;11820;48.738;9.092;2023-08-31T07:57:47;4.70;;;1.87;;
23302;SDS011;11820;48.738;9.092;2023-08-31T08:00:12;4.90;;;2.27;;
23302;SDS011;11820;48.738;9.092;2023-08-31T08:02:39;3.70;;;2.07;;
23302;SDS011;11820;48.738;9.092;2023-08-31T08:05:05;4.93;;;2.63;;
23302;SDS011;11820;48.738;9.092;2023-08-31T08:07:31;4.57;;;1.90;;
23302;SDS011;11820;48.738;9.092;2023-08-31T08:09:56;3.43;;;2.20;;
23302;SDS011;11820;48.738;9.092;2023-08-31T08:12:21;2.73;;;1.67;;
23302;SDS011;11820;48.738;9.092;2023-08-31T08:14:47;3.10;;;1.70;;
23302;SDS011;11820;48.738;9.092;2023-08-31T08:17:12;3.13;;;1.77;;
23302;SDS011;11820;48.738;9.092;2023-08-31T08:19:37;6.83;;;2.40;;
23302;SDS011;11820;48.738;9.092;2023-08-31T08:22:03;5.80;;;2.27;;
23302;SDS011;11820;48.738;9.092;2023-08-31T08:24:28;5.13;;;2.10;;
23302;SDS011;11820;48.738;9.092;2023-08-31T08:26:54;4.67;;;1.90;;
23302;SDS011;11820;48.738;9.092;2023-08-31T08:29:19;4.60;;;1.90;;
23302;SDS011;11820;48.738;9.092;2023-08-31T08:31:44;3.57;;;1.90;;
23302;SDS011;11820;48.738;9.092;2023-08-31T08:34:10;7.37;;;2.30;;
23302;SDS011;11820;48.738;9.092;2023-08-31T08:36:35;7.20;;;2.13;;
23302;SDS011;11820;48.738;9.092;2023-08-31T08:39:00;3.27;;;2.03;;
23302;SDS011;11820;48.738;9.092;2023-08-31T08:41:26;4.90;;;2.07;;
23302;SDS011;11820;48.738;9.092;2023-08-31T08:43:54;5.33;;;1.70;;
23302;SDS011;11820;48.738;9.092;2023-08-31T08:46:23;3.00;;;1.67;;
23302;SDS011;11820;48.738;9.092;2023-08-31T08:48:49;3.00;;;1.80;;
23302;SDS011;11820;48.738;9.092;2023-08-31T08:51:15;3.90;;;1.80;;
23302;SDS011;11820;48.738;9.092;2023-08-31T08:53:42;7.57;;;2.27;;
23302;SDS011;11820;48.738;9.092;2023-08-31T08:56:08;3.67;;;1.97;;
23302;SDS011;11820;48.738;9.092;2023-08-31T08:58:33;5.07;;;2.10;;
23302;SDS011;11820;48.738;9.092;2023-08-31T09:00:59;4.53;;;1.97;;
23302;SDS011;11820;48.738;9.092;2023-08-31T09:03:24;2.87;;;1.97;;
23302;SDS011;11820;48.738;9.092;2023-08-31T09:05:50;4.93;;;1.83;;
23302;SDS011;11820;48.738;9.092;2023-08-31T09:08:17;5.30;;;2.37;;
23302;SDS011;11820;48.738;9.092;2023-08-31T09:10:43;3.43;;;2.23;;
23302;SDS011;11820;48.738;9.092;2023-08-31T09:13:10;6.13;;;2.30;;
23302;SDS011;11820;48.738;9.092;2023-08-31T09:15:47;6.63;;;2.23;;
23302;SDS011;11820;48.738;9.092;2023-08-31T09:18:16;6.07;;;1.87;;
23302;SDS011;11820;48.738;9.092;2023-08-31T09:20:49;5.57;;;2.00;;
23302;SDS011;11820;48.738;9.092;2023-08-31T09:23:15;4.80;;;2.33;;
23302;SDS011;11820;48.738;9.092;2023-08-31T09:25:42;4.53;;;1.90;;
23302;SDS011;11820;48.738;9.092;2023-08-31T09:28:09;4.70;;;2.13;;
23302;SDS011;11820;48.738;9.092;2023-08-31T09:30:37;3.57;;;1.80;;
23302;SDS011;11820;48.738;9.092;2023-08-31T09:33:06;5.83;;;1.77;;
23302;SDS011;11820;48.738;9.092;2023-08-31T09:35:41;2.83;;;1.70;;
23302;SDS011;11820;48.738;9.092;2023-08-31T09:38:12;2.60;;;1.67;;
23302;SDS011;11820;48.738;9.092;2023-08-31T09:40:39;3.10;;;1.73;;
23302;SDS011;11820;48.738;9.092;2023-08-31T09:43:04;3.97;;;2.17;;
23302;SDS011;11820;48.738;9.092;2023-08-31T09:45:30;2.60;;;1.70;;
23302;SDS011;11820;48.738;9.092;2023-08-31T09:47:58;5.43;;;1.90;;
23302;SDS011;11820;48.738;9.092;2023-08-31T09:50:24;2.93;;;1.67;;
23302;SDS011;11820;48.738;9.092;2023-08-31T09:52:51;4.17;;;1.80;;
23302;SDS011;11820;48.738;9.092;2023-08-31T09:55:20;3.17;;;1.70;;
23302;SDS011;11820;48.738;9.092;2023-08-31T09:57:48;4.70;;;2.03;;
23302;SDS011;11820;48.738;9.092;2023-08-31T10:00:14;6.37;;;2.13;;
23302;SDS011;11820;48.738;9.092;2023-08-31T10:02:41;5.60;;;2.30;;
23302;SDS011;11820;48.738;9.092;2023-08-31T10:05:08;3.20;;;1.70;;
23302;SDS011;11820;48.738;9.092;2023-08-31T10:07:34;3.33;;;1.37;;
23302;SDS011;11820;48.738;9.092;2023-08-31T10:10:00;5.70;;;2.40;;
23302;SDS011;11820;48.738;9.092;2023-08-31T10:12:27;5.33;;;2.40;;
23302;SDS011;11820;48.738;9.092;2023-08-31T10:14:52;5.83;;;1.83;;
23302;SDS011;11820;48.738;9.092;2023-08-31T10:17:19;7.37;;;2.40;;
23302;SDS011;11820;48.738;9.092;2023-08-31T10:19:46;4.17;;;1.93;;
23302;SDS011;11820;48.738;9.092;2023-08-31T10:22:11;4.10;;;1.90;;
23302;SDS011;11820;48.738;9.092;2023-08-31T10:24:59;5.10;;;2.00;;
23302;SDS011;11820;48.738;9.092;2023-08-31T10:27:29;4.13;;;1.90;;
23302;SDS011;11820;48.738;9.092;2023-08-31T10:32:45;5.23;;;1.83;;
23302;SDS011;11820;48.738;9.092;2023-08-31T10:35:11;4.67;;;1.70;;
23302;SDS011;11820;48.738;9.092;2023-08-31T10:37:39;6.20;;;2.30;;
23302;SDS011;11820;48.738;9.092;2023-08-31T10:40:09;4.80;;;2.27;;
23302;SDS011;11820;48.738;9.092;2023-08-31T10:42:46;7.03;;;2.00;;
23302;SDS011;11820;48.738;9.092;2023-08-31T10:45:14;3.13;;;1.87;;
23302;SDS011;11820;48.738;9.092;2023-08-31T10:47:46;5.60;;;1.90;;
23302;SDS011;11820;48.738;9.092;2023-08-31T10:50:15;4.50;;;2.10;;
23302;SDS011;11820;48.738;9.092;2023-08-31T10:52:44;4.23;;;2.23;;
23302;SDS011;11820;48.738;9.092;2023-08-31T10:55:10;5.63;;;2.73;;
23302;SDS011;11820;48.738;9.092;2023-08-31T10:57:36;5.90;;;2.10;;
23302;SDS011;11820;48.738;9.092;2023-08-31T11:00:02;5.70;;;2.13;;
23302;SDS011;11820;48.738;9.092;2023-08-31T11:02:36;4.00;;;1.90;;
23302;SDS011;11820;48.738;9.092;2023-08-31T11:07:39;3.30;;;2.13;;
23302;SDS011;11820;48.738;9.092;2023-08-31T11:12:42;4.07;;;2.00;;
23302;SDS011;11820;48.738;9.092;2023-08-31T11:15:13;4.80;;;1.77;;
23302;SDS011;11820;48.738;9.092;2023-08-31T11:17:39;3.20;;;2.00;;
23302;SDS011;11820;48.738;9.092;2023-08-31T11:20:06;3.53;;;1.80;;
23302;SDS011;11820;48.738;9.092;2023-08-31T11:22:34;3.50;;;1.90;;
23302;SDS011;11820;48.738;9.092;2023-08-31T11:25:03;6.77;;;2.20;;
23302;SDS011;11820;48.738;9.092;2023-08-31T11:27:28;4.43;;;2.13;;
23302;SDS011;11820;48.738;9.092;2023-08-31T11:29:54;6.33;;;2.00;;
23302;SDS011;11820;48.738;9.092;2023-08-31T11:32:22;4.77;;;2.30;;
23302;SDS011;11820;48.738;9.092;2023-08-31T11:34:48;4.93;;;2.20;;
23302;SDS011;11820;48.738;9.092;2023-08-31T11:37:13;4.60;;;2.20;;
23302;SDS011;11820;48.738;9.092;2023-08-31T11:39:48;4.57;;;2.43;;
23302;SDS011;11820;48.738;9.092;2023-08-31T11:42:15;2.00;;;1.73;;
23302;SDS011;11820;48.738;9.092;2023-08-31T11:44:41;5.83;;;2.40;;
23302;SDS011;11820;48.738;9.092;2023-08-31T11:47:07;5.13;;;1.93;;
23302;SDS011;11820;48.738;9.092;2023-08-31T11:49:32;5.00;;;2.33;;
23302;SDS011;11820;48.738;9.092;2023-08-31T11:51:58;5.40;;;1.90;;
23302;SDS011;11820;48.738;9.092;2023-08-31T11:54:24;4.03;;;2.07;;
23302;SDS011;11820;48.738;9.092;2023-08-31T11:56:50;6.17;;;2.03;;
23302;SDS011;11820;48.738;9.092;2023-08-31T11:59:16;5.43;;;1.97;;
23302;SDS011;11820;48.738;9.092;2023-08-31T12:01:43;4.77;;;1.93;;
23302;SDS011;11820;48.738;9.092;2023-08-31T12:04:11;3.60;;;1.93;;
23302;SDS011;11820;48.738;9.092;2023-08-31T12:06:37;4.10;;;2.17;;
23302;SDS011;11820;48.738;9.092;2023-08-31T12:09:04;3.87;;;1.90;;
23302;SDS011;11820;48.738;9.092;2023-08-31T12:11:31;3.80;;;2.00;;
23302;SDS011;11820;48.738;9.092;2023-08-31T12:13:59;4.10;;;1.90;;
23302;SDS011;11820;48.738;9.092;2023-08-31T12:16:32;4.40;;;2.03;;
23302;SDS011;11820;48.738;9.092;2023-08-31T12:19:04;4.03;;;2.03;;
23302;SDS011;11820;48.738;9.092;2023-08-31T12:21:32;5.63;;;2.07;;
23302;SDS011;11820;48.738;9.092;2023-08-31T12:23:58;3.73;;;1.90;;
23302;SDS011;11820;48.738;9.092;2023-08-31T12:26:24;5.33;;;1.93;;
23302;SDS011;11820;48.738;9.092;2023-08-31T12:28:50;4.97;;;2.10;;
23302;SDS011;11820;48.738;9.092;2023-08-31T12:31:15;5.70;;;2.33;;
23302;SDS011;11820;48.738;9.092;2023-08-31T12:33:41;2.67;;;1.93;;
23302;SDS011;11820;48.738;9.092;2023-08-31T12:36:06;2.57;;;1.73;;
23302;SDS011;11820;48.738;9.092;2023-08-31T12:38:32;4.63;;;2.20;;
23302;SDS011;11820;48.738;9.092;2023-08-31T12:40:58;4.43;;;2.03;;
23302;SDS011;11820;48.738;9.092;2023-08-31T12:43:23;3.43;;;1.80;;
23302;SDS011;11820;48.738;9.092;2023-08-31T12:45:49;4.90;;;2.20;;
23302;SDS011;11820;48.738;9.092;2023-08-31T12:48:14;4.37;;;2.33;;
23302;SDS011;11820;48.738;9.092;2023-08-31T12:50:39;7.20;;;1.77;;
23302;SDS011;11820;48.738;9.092;2023-08-31T12:53:05;3.97;;;2.03;;
23302;SDS011;11820;48.738;9.092;2023-08-31T12:55:30;4.60;;;1.93;;
23302;SDS011;11820;48.738;9.092;2023-08-31T12:57:55;3.97;;;1.93;;
23302;SDS011;11820;48.738;9.092;2023-08-31T13:00:21;4.67;;;2.10;;
23302;SDS011;11820;48.738;9.092;2023-08-31T13:02:46;6.33;;;1.93;;
23302;SDS011;11820;48.738;9.092;2023-08-31T13:05:12;7.63;;;2.17;;
23302;SDS011;11820;48.738;9.092;2023-08-31T13:07:37;3.10;;;2.00;;
23302;SDS011;11820;48.738;9.092;2023-08-31T13:10:03;4.27;;;2.40;;
23302;SDS011;11820;48.738;9.092;2023-08-31T13:12:30;4.90;;;2.63;;
23302;SDS011;11820;48.738;9.092;2023-08-31T13:14:56;4.87;;;1.90;;
23302;SDS011;11820;48.738;9.092;2023-08-31T13:17:22;3.87;;;2.07;;
23302;SDS011;11820;48.738;9.092;2023-08-31T13:19:51;4.53;;;2.10;;
23302;SDS011;11820;48.738;9.092;2023-08-31T13:22:17;5.83;;;2.20;;
23302;SDS011;11820;48.738;9.092;2023-08-31T13:24:42;4.53;;;2.20;;
23302;SDS011;11820;48.738;9.092;2023-08-31T13:27:07;5.60;;;2.30;;
23302;SDS011;11820;48.738;9.092;2023-08-31T13:29:33;3.67;;;1.60;;
23302;SDS011;11820;48.738;9.092;2023-08-31T13:31:58;5.20;;;2.23;;
23302;SDS011;11820;48.738;9.092;2023-08-31T13:34:23;4.72;;;2.20;;
23302;SDS011;11820;48.738;9.092;2023-08-31T13:36:48;4.75;;;2.20;;
23302;SDS011;11820;48.738;9.092;2023-08-31T13:39:14;3.08;;;1.88;;
23302;SDS011;11820;48.738;9.092;2023-08-31T13:41:39;3.70;;;2.03;;
23302;SDS011;11820;48.738;9.092;2023-08-31T13:44:05;3.92;;;1.98;;
23302;SDS011;11820;48.738;9.092;2023-08-31T13:46:31;3.53;;;1.95;;
23302;SDS011;11820;48.738;9.092;2023-08-31T13:48:56;5.70;;;2.20;;
23302;SDS011;11820;48.738;9.092;2023-08-31T13:51:21;5.97;;;2.13;;
23302;SDS011;11820;48.738;9.092;2023-08-31T13:53:47;3.63;;;1.95;;
23302;SDS011;11820;48.738;9.092;2023-08-31T13:56:12;3.47;;;2.10;;
23302;SDS011;11820;48.738;9.092;2023-08-31T13:58:38;3.77;;;2.10;;
23302;SDS011;11820;48.738;9.092;2023-08-31T14:01:03;2.20;;;1.87;;
23302;SDS011;11820;48.738;9.092;2023-08-31T14:03:29;3.43;;;2.00;;
23302;SDS011;11820;48.738;9.092;2023-08-31T14:05:54;4.20;;;2.00;;
23302;SDS011;11820;48.738;9.092;2023-08-31T14:08:19;4.63;;;2.20;;
23302;SDS011;11820;48.738;9.092;2023-08-31T14:10:45;2.13;;;1.57;;
23302;SDS011;11820;48.738;9.092;2023-08-31T14:13:10;4.43;;;2.40;;
23302;SDS011;11820;48.738;9.092;2023-08-31T14:15:36;4.07;;;1.70;;
23302;SDS011;11820;48.738;9.092;2023-08-31T14:18:02;4.03;;;2.20;;
23302;SDS011;11820;48.738;9.092;2023-08-31T14:20:28;2.33;;;1.80;;
23302;SDS011;11820;48.738;9.092;2023-08-31T14:22:54;4.40;;;2.13;;
23302;SDS011;11820;48.738;9.092;2023-08-31T14:25:19;6.10;;;2.33;;
23302;SDS011;11820;48.738;9.092;2023-08-31T14:27:48;4.47;;;1.90;;
23302;SDS011;11820;48.738;9.092;2023-08-31T14:30:14;3.80;;;1.90;;
23302;SDS011;11820;48.738;9.092;2023-08-31T14:32:39;3.30;;;2.07;;
23302;SDS011;11820;48.738;9.092;2023-08-31T14:35:04;5.23;;;1.43;;
23302;SDS011;11820;48.738;9.092;2023-08-31T14:37:31;4.27;;;1.60;;
23302;SDS011;11820;48.738;9.092;2023-08-31T14:39:56;4.33;;;1.60;;
23302;SDS011;11820;48.738;9.092;2023-08-31T14:42:22;5.47;;;2.07;;
23302;SDS011;11820;48.738;9.092;2023-08-31T14:44:47;5.87;;;1.83;;
23302;SDS011;11820;48.738;9.092;2023-08-31T14:47:14;3.73;;;1.80;;
23302;SDS011;11820;48.738;9.092;2023-08-31T14:49:39;7.13;;;2.17;;
23302;SDS011;11820;48.738;9.092;2023-08-31T14:52:07;7.00;;;1.93;;
23302;SDS011;11820;48.738;9.092;2023-08-31T14:54:33;3.33;;;2.20;;
23302;SDS011;11820;48.738;9.092;2023-08-31T14:56:58;4.10;;;1.90;;